Latest Weather Observations for Forbes

IDN60801

Issued at 9:03 am EST Thursday 2 July 2015 (issued every 30 minutes, with the page automatically refreshed every 10 minutes)

About weather observations | Map of weather stations | Latest weather observations for NSW | Other Formats
Station Details ID: 065103 Name: FORBES AIRPORT AWS Lat: -33.36 Lon: 147.92 Height: 230.4 m
Data from the previous 72 hours. | See also: Recent months at Forbes
Date/Time
EST
Temp
°C
App
Temp
°C
Dew
Point
Rel
Hum
%
Delta-T
°C
Wind Press
QNH
hPa
Press
MSL
hPa
Rain
since 9 am
mm
Dir
 
Spd
km/h
Gust
km/h
Spd
kts
Gust
kts
02/09:00am 4.3 2.3 4.2 99 0.0 WNW 4 9 2 5 1025.4 1025.8 0.0
02/08:30am 1.9 0.2 1.8 99 0.0 CALM 0 0 0 0 1025.4 1025.8 0.0
02/08:00am -0.3 -2.3 -0.4 99 0.0 CALM 0 0 0 0 1025.1 1025.5 0.0
02/07:30am -0.8 -2.9 -0.9 99 0.0 CALM 0 0 0 0 1025.0 1025.4 0.0
02/07:00am -0.9 -3.0 -1.0 99 0.0 CALM 0 0 0 0 1024.7 1025.1 0.0
02/06:30am -0.1 -2.1 -0.2 99 0.0 CALM 0 0 0 0 1024.4 1024.8 0.0
02/06:00am 0.2 -1.8 0.1 99 0.0 CALM 0 0 0 0 1024.5 1024.9 0.0
02/05:30am 0.7 -1.2 0.6 99 0.0 CALM 0 0 0 0 1024.3 1024.7 0.0
02/05:00am 0.8 -1.1 0.7 99 0.0 CALM 0 0 0 0 1024.2 1024.6 0.0
02/04:30am 0.8 -1.1 0.7 99 0.0 CALM 0 0 0 0 1024.1 1024.5 0.0
02/04:00am 0.7 -1.2 0.6 99 0.0 CALM 0 0 0 0 1024.4 1024.8 0.0
02/03:30am 0.7 -1.2 0.6 99 0.0 CALM 0 0 0 0 1024.8 1025.2 0.0
02/03:00am 0.5 -2.6 0.2 98 0.1 NNW 6 7 3 4 1025.1 1025.5 0.0
02/02:30am 0.9 -1.0 0.6 98 0.1 CALM 0 0 0 0 1025.1 1025.5 0.0
02/02:00am 1.4 -0.4 1.1 98 0.1 CALM 0 0 0 0 1025.3 1025.7 0.0
02/01:30am 1.8 0.1 1.7 99 0.0 CALM 0 0 0 0 1025.4 1025.8 0.0
02/01:00am 2.0 0.3 1.7 98 0.1 CALM 0 0 0 0 1025.6 1026.0 0.0
02/12:30am 2.3 0.7 2.2 99 0.0 CALM 0 0 0 0 1025.6 1026.0 0.0
02/12:00am 2.2 0.5 1.9 98 0.1 CALM 0 0 0 0 1025.8 1026.2 0.0
 
Date/Time
EST
Temp
°C
App
Temp
°C
Dew
Point
Rel
Hum
%
Delta-T
°C
Wind Press
QNH
hPa
Press
MSL
hPa
Rain
since 9 am
mm
Dir
 
Spd
km/h
Gust
km/h
Spd
kts
Gust
kts
01/11:30pm 2.6 1.0 2.5 99 0.0 CALM 0 0 0 0 1025.7 1026.1 0.0
01/11:00pm 2.5 0.9 2.4 99 0.0 CALM 0 0 0 0 1026.0 1026.5 0.0
01/10:30pm 2.3 0.6 2.0 98 0.1 CALM 0 0 0 0 1026.1 1026.6 0.0
01/10:00pm 2.4 0.8 2.3 99 0.0 CALM 0 0 0 0 1026.4 1026.9 0.0
01/09:30pm 1.7 -0.1 1.4 98 0.1 CALM 0 0 0 0 1026.5 1027.0 0.0
01/09:00pm 1.3 -0.5 0.9 97 0.2 CALM 0 0 0 0 1026.4 1026.9 0.0
01/08:30pm 1.4 -0.5 0.7 95 0.3 CALM 0 0 0 0 1026.2 1026.7 0.0
01/08:00pm 1.6 -0.3 0.7 94 0.3 CALM 0 0 0 0 1026.2 1026.7 0.0
01/07:30pm 2.4 0.6 1.4 93 0.4 CALM 0 0 0 0 1026.1 1026.6 0.0
01/07:00pm 3.6 2.0 2.6 93 0.4 CALM 0 0 0 0 1026.3 1026.8 0.0
01/06:30pm 4.1 1.8 2.6 90 0.6 SW 4 6 2 3 1026.1 1026.6 0.0
01/06:00pm 4.8 1.9 2.7 86 0.9 SW 7 7 4 4 1026.1 1026.6 0.0
01/05:30pm 6.0 3.2 3.2 82 1.2 SSW 7 9 4 5 1026.0 1026.5 0.0
01/05:00pm 7.1 4.0 3.5 78 1.5 SSW 9 13 5 7 1025.9 1026.4 0.0
01/04:30pm 8.7 4.9 3.9 72 2.1 SSW 13 19 7 10 1025.7 1026.1 0.0
01/04:00pm 8.5 5.1 3.8 72 2.0 SW 11 15 6 8 1025.7 1026.1 0.0
01/03:30pm 9.6 5.3 3.4 65 2.7 SW 15 19 8 10 1025.6 1026.0 0.0
01/03:00pm 10.0 5.6 2.8 61 3.1 SSW 15 20 8 11 1025.7 1026.1 0.0
01/02:30pm 10.0 5.7 3.1 62 3.0 SSW 15 20 8 11 1025.9 1026.4 0.0
01/02:00pm 9.7 4.6 2.8 62 3.0 S 19 22 10 12 1025.9 1026.4 0.0
01/01:30pm 9.6 4.8 2.7 62 3.0 S 17 28 9 15 1026.2 1026.7 0.0
01/01:00pm 10.1 4.9 3.8 65 2.8 SSW 20 28 11 15 1026.8 1027.3 0.0
01/12:30pm 9.9 4.5 2.7 61 3.1 SSW 20 28 11 15 1027.6 1028.0 0.0
01/12:00pm 9.0 3.8 2.3 63 2.8 S 19 26 10 14 1028.1 1028.5 0.0
01/11:30am 8.8 4.5 3.2 68 2.4 S 15 24 8 13 1028.4 1028.8 0.0
01/11:00am 8.6 4.8 3.8 72 2.1 S 13 20 7 11 1028.8 1029.2 0.0
01/10:30am 7.7 4.9 5.3 85 1.1 SW 9 13 5 7 1029.1 1029.5 0.0
01/10:00am 6.4 4.2 6.3 99 0.0 SW 7 11 4 6 1029.1 1029.5 0.0
01/09:30am 4.9 2.6 4.8 99 0.0 SSE 6 9 3 5 1028.8 1029.1 0.0
01/09:00am 3.3 1.5 3.2 99 0.0 SE 2 7 1 4 1028.5 1028.8 0.6
01/08:30am 1.5 -1.0 1.4 99 0.0 ENE 4 7 2 4 1028.3 1028.6 0.6
01/08:00am 0.2 -2.5 0.1 99 0.0 WSW 4 7 2 4 1028.4 1028.7 0.6
01/07:30am 0.0 -2.0 -0.1 99 0.0 CALM 0 0 0 0 1028.3 1028.6 0.6
01/07:00am 0.1 -2.3 0.0 99 0.0 WSW 2 15 1 8 1028.1 1028.4 0.6
01/06:30am -1.1 -3.3 -1.2 99 0.0 CALM 0 0 0 0 1027.8 1028.1 0.6
01/06:00am -1.4 -3.6 -1.5 99 0.0 CALM 0 0 0 0 1027.5 1027.8 0.6
01/05:30am -1.3 -3.5 -1.4 99 0.0 CALM 0 0 0 0 1027.5 1027.8 0.6
01/05:00am -0.2 -2.2 -0.3 99 0.0 CALM 0 0 0 0 1027.4 1027.7 0.6
01/04:30am 0.4 -2.7 0.3 99 0.0 SSE 6 7 3 4 1027.3 1027.6 0.6
01/04:00am 0.9 -2.1 0.8 99 0.0 SSW 6 7 3 4 1027.5 1027.8 0.6
01/03:30am 1.7 -1.4 1.6 99 0.0 S 7 9 4 5 1027.4 1027.7 0.6
01/03:00am 1.8 -1.6 1.7 99 0.0 SSW 9 9 5 5 1027.5 1027.8 0.6
01/02:30am 2.1 -0.9 1.8 98 0.1 SSW 7 9 4 5 1027.5 1027.8 0.6
01/02:00am 3.6 1.0 3.3 98 0.1 S 6 7 3 4 1027.6 1027.9 0.6
01/01:30am 4.1 1.4 3.7 97 0.2 S 7 7 4 4 1027.5 1027.8 0.6
01/01:00am 4.8 2.2 4.4 97 0.2 SSW 7 7 4 4 1027.8 1028.1 0.6
01/12:30am 5.1 2.2 4.5 96 0.3 S 9 11 5 6 1027.9 1028.2 0.6
01/12:00am 6.4 4.1 5.8 96 0.3 S 7 9 4 5 1028.1 1028.4 0.6
 
Date/Time
EST
Temp
°C
App
Temp
°C
Dew
Point
Rel
Hum
%
Delta-T
°C
Wind Press
QNH
hPa
Press
MSL
hPa
Rain
since 9 am
mm
Dir
 
Spd
km/h
Gust
km/h
Spd
kts
Gust
kts
30/11:30pm 6.6 4.4 6.2 97 0.2 S 7 9 4 5 1028.2 1028.5 0.6
30/11:00pm 6.6 4.4 6.2 97 0.2 SSW 7 9 4 5 1028.4 1028.7 0.6
30/10:30pm 6.6 4.4 6.2 97 0.2 S 7 7 4 4 1028.6 1028.9 0.6
30/10:00pm 6.6 4.5 6.0 96 0.3 S 6 7 3 4 1028.6 1028.9 0.6
30/09:30pm 6.5 4.4 5.8 95 0.3 SSE 6 7 3 4 1028.7 1029.0 0.6
30/09:00pm 6.8 4.5 5.9 94 0.4 S 7 11 4 6 1029.0 1029.3 0.6
30/08:30pm 7.0 4.7 5.5 90 0.7 SSW 7 11 4 6 1028.9 1029.2 0.4
30/08:00pm 7.7 5.5 5.2 84 1.1 S 6 9 3 5 1028.7 1029.0 0.2
30/07:30pm 7.8 4.2 4.9 82 1.3 S 13 17 7 9 1028.5 1028.8 0.2
30/07:00pm 8.0 4.4 4.8 80 1.4 S 13 17 7 9 1028.3 1028.6 0.2
30/06:30pm 8.1 4.5 5.0 81 1.4 S 13 19 7 10 1028.2 1028.5 0.2
30/06:00pm 8.0 5.7 5.6 85 1.1 S 7 9 4 5 1027.9 1028.2 0.2
30/05:30pm 8.4 5.6 5.2 80 1.4 SSE 9 11 5 6 1027.6 1027.9 0.2
30/05:00pm 8.8 5.7 5.4 79 1.5 S 11 15 6 8 1027.6 1027.9 0.2
30/04:30pm 9.1 5.6 5.5 78 1.7 S 13 17 7 9 1027.3 1027.6 0.2
30/04:00pm 9.5 5.6 5.5 76 1.8 S 15 19 8 10 1027.2 1027.5 0.2
30/03:30pm 9.8 6.2 5.2 73 2.1 S 13 19 7 10 1027.1 1027.4 0.2
30/03:00pm 9.9 6.3 5.1 72 2.2 S 13 17 7 9 1027.1 1027.4 0.2
30/02:30pm 10.2 6.6 5.2 71 2.3 S 13 17 7 9 1027.0 1027.3 0.2
30/02:00pm 10.4 7.0 6.0 74 2.0 SSW 13 17 7 9 1027.4 1027.7 0.2
30/01:30pm 10.5 7.1 5.9 73 2.2 S 13 17 7 9 1027.4 1027.7 0.2
30/01:00pm 11.2 7.5 6.5 73 2.2 SSW 15 19 8 10 1028.0 1028.3 0.2
30/12:30pm 10.6 7.4 6.9 78 1.8 SSW 13 17 7 9 1028.4 1028.7 0.2
30/12:00pm 10.6 8.5 6.7 77 1.8 S 7 13 4 7 1028.7 1029.0 0.2
30/11:30am 10.3 7.9 7.0 80 1.6 S 9 13 5 7 1028.8 1029.1 0.2
30/11:00am 9.7 7.3 7.1 84 1.2 S 9 13 5 7 1029.4 1029.7 0.2
30/10:30am 8.5 5.5 7.6 94 0.4 SSW 13 17 7 9 1029.7 1030.0 0.2
30/10:00am 7.5 4.8 7.4 99 0.0 SSW 11 15 6 8 1030.0 1030.3 0.2
30/09:30am 6.3 4.7 6.2 99 0.0 SSE 4 9 2 5 1029.9 1030.2 0.0
30/09:00am 5.2 4.1 5.1 99 0.0 CALM 0 0 0 0 1029.8 1030.1 0.0
30/08:30am 4.4 3.1 4.3 99 0.0 CALM 0 0 0 0 1029.6 1029.9 0.0
30/08:00am 4.0 2.7 3.9 99 0.0 CALM 0 6 0 3 1029.5 1029.8 0.0
30/07:30am 3.8 2.4 3.7 99 0.0 CALM 0 0 0 0 1029.2 1029.5 0.0
30/07:00am 3.7 2.3 3.6 99 0.0 CALM 0 0 0 0 1029.0 1029.3 0.0
30/06:30am 3.7 2.3 3.6 99 0.0 CALM 0 0 0 0 1028.7 1029.0 0.0
30/06:00am 3.5 2.1 3.4 99 0.0 CALM 0 0 0 0 1028.6 1028.9 0.0
30/05:30am 3.6 2.2 3.5 99 0.0 CALM 0 0 0 0 1028.6 1028.9 0.0
30/05:00am 3.4 2.0 3.3 99 0.0 CALM 0 0 0 0 1028.4 1028.7 0.0
30/04:30am 3.4 2.0 3.3 99 0.0 CALM 0 0 0 0 1028.5 1028.8 0.0
30/04:00am 3.1 1.6 3.0 99 0.0 CALM 0 0 0 0 1028.5 1028.8 0.0
30/03:30am 2.8 1.2 2.7 99 0.0 CALM 0 0 0 0 1028.7 1029.0 0.0
30/03:00am 2.2 0.5 2.1 99 0.0 CALM 0 0 0 0 1029.0 1029.3 0.0
30/02:30am 1.5 -0.6 1.4 99 0.0 SE 2 9 1 5 1028.8 1029.1 0.0
30/02:00am 0.5 -1.4 0.4 99 0.0 CALM 0 0 0 0 1028.7 1029.0 0.0
30/01:30am 0.6 -1.3 0.5 99 0.0 CALM 0 0 0 0 1028.6 1028.9 0.0
30/01:00am 1.2 -0.6 1.1 99 0.0 CALM 0 0 0 0 1028.8 1029.1 0.0
30/12:30am 1.8 0.1 1.7 99 0.0 CALM 0 0 0 0 1028.7 1029.0 0.0
30/12:00am 1.8 0.1 1.7 99 0.0 CALM 0 0 0 0 1028.9 1029.2 0.0
 
Date/Time
EST
Temp
°C
App
Temp
°C
Dew
Point
Rel
Hum
%
Delta-T
°C
Wind Press
QNH
hPa
Press
MSL
hPa
Rain
since 9 am
mm
Dir
 
Spd
km/h
Gust
km/h
Spd
kts
Gust
kts
29/11:30pm 2.0 -0.8 1.9 99 0.0 N 6 9 3 5 1029.2 1029.5 0.0
29/11:00pm 1.5 -2.0 1.4 99 0.0 NE 9 11 5 6 1029.1 1029.4 0.0
29/10:30pm 1.9 -0.2 1.8 99 0.0 NNE 2 7 1 4 1029.3 1029.6 0.0
29/10:00pm 2.6 -0.7 2.5 99 0.0 NNE 9 9 5 5 1029.4 1029.7 0.0
29/09:30pm 3.2 0.4 3.1 99 0.0 NNE 7 9 4 5 1029.7 1030.0 0.0
29/09:00pm 4.1 2.8 4.0 99 0.0 CALM 0 0 0 0 1029.9 1030.2 0.0
29/08:30pm 4.0 2.2 3.6 97 0.2 NW 2 6 1 3 1030.1 1030.4 0.0
29/08:00pm 4.0 1.4 3.4 96 0.2 NW 6 7 3 4 1030.1 1030.4 0.0
29/07:30pm 4.2 2.3 2.9 91 0.5 NW 2 9 1 5 1029.9 1030.2 0.0
29/07:00pm 5.7 4.4 4.0 89 0.7 CALM 0 0 0 0 1029.8 1030.1 0.0
29/06:30pm 7.5 5.8 6.1 91 0.6 WSW 4 7 2 4 1029.6 1029.9 0.0
29/06:00pm 8.5 6.0 6.5 87 0.9 WSW 9 13 5 7 1029.6 1029.9 0.0
29/05:30pm 9.6 7.6 7.0 84 1.2 WSW 7 7 4 4 1029.4 1029.7 0.0
29/05:00pm 11.5 8.9 7.8 78 1.8 WSW 11 15 6 8 1029.2 1029.5 0.0
29/04:30pm 13.5 11.1 8.8 73 2.4 WSW 11 13 6 7 1029.2 1029.5 0.0
29/04:00pm 14.5 11.7 8.7 68 2.9 W 13 19 7 10 1029.0 1029.3 0.0
29/03:30pm 15.0 11.4 8.3 64 3.4 WNW 17 20 9 11 1028.9 1029.2 0.0
29/03:00pm 15.5 12.7 8.5 63 3.6 W 13 17 7 9 1028.8 1029.1 0.0
29/02:30pm 16.0 13.6 8.5 61 3.9 WNW 11 17 6 9 1028.6 1028.9 0.0
29/02:00pm 15.7 12.9 8.7 63 3.6 W 13 20 7 11 1028.7 1029.0 0.0
29/01:30pm 15.6 12.8 8.6 63 3.6 W 13 17 7 9 1028.8 1029.1 0.0
29/01:00pm 15.5 13.3 7.8 60 3.9 N 9 17 5 9 1029.2 1029.5 0.0
29/12:30pm 14.5 12.7 7.3 62 3.6 NE 6 9 3 5 1029.6 1029.9 0.0
29/12:00pm 14.4 13.1 7.7 64 3.3 N 4 9 2 5 1030.3 1030.7 0.0
29/11:30am 12.7 10.9 7.0 68 2.8 N 6 11 3 6 1030.8 1031.2 0.0
29/11:00am 11.0 10.0 7.5 79 1.7 ESE 2 9 1 5 1031.3 1031.7 0.0
29/10:30am 9.0 7.9 6.8 86 1.0 ESE 2 7 1 4 1031.7 1032.0 0.0
29/10:00am 7.7 4.9 7.0 95 0.3 E 11 13 6 7 1032.2 1032.5 0.0
29/09:30am 5.6 3.3 5.5 99 0.0 ESE 7 11 4 6 1032.2 1032.5 0.0

Other Formats:

Comma delimited format used in spreadsheet applications
http://www.bom.gov.au/fwo/IDN60801/IDN60801.94715.axf

JavaScript Object Notation format (JSON) in row-major order
http://www.bom.gov.au/fwo/IDN60801/IDN60801.94715.json